Details for EasyJet at LIRF




Go Back


Latest METAR
Local Time

LIRF 221120Z 27008KT CAVOK 27/18 Q1017 NOSIG
22/09/2018, 13:53:34

Description
Results
EasyJet Logo
Number of Pilots based at LIRF
0 Pilots Based here
Number of EasyJet Flights Departed from LIRF
6 Flights Departed
Number of EasyJet Flights Arrived at LIRF
2 Flights Arrived
Number of EasyJet Schedules Departing from LIRF
39 Schedules
Number of EasyJet Schedules Arriving at LIRF
37 Schedules
Number of EasyJet Schedules Departing from LIRF availible today
16 Schedules Today
Number of EasyJet Schedules Arriving at LIRF availible today
16 Schedules Today
Average Landing Rate at LIRF
-199 fpm
EasyJet Average Landing Rate at LIRF
-35 fpm
Total Fuel Purchased at LIRF by EasyJet
19,682.28 kgs / 43,391.55 lbs

Pilots Based at LIRF


Pilot ID
Pilot Name
Pilot Rank
No. of Flights
No. of Flying Hours
There are no pilots assigned to this hub!   Will you be the first?
Content